createdAt,value
2022-11-25T00:01:06.815Z,0.31
2022-11-25T00:03:07.996Z,0.47
2022-11-25T00:05:09.305Z,0.52
2022-11-25T00:07:10.972Z,0.4
2022-11-25T00:09:12.620Z,0.32
2022-11-25T00:11:13.938Z,0.28
2022-11-25T00:13:15.922Z,0.22
2022-11-25T00:15:17.115Z,0.28
2022-11-25T00:17:18.899Z,0.32
2022-11-25T00:19:20.888Z,0.55
2022-11-25T00:21:22.527Z,0.54
2022-11-25T00:23:25.307Z,0.48
2022-11-25T00:25:25.852Z,0.47
2022-11-25T00:27:27.320Z,0.37
2022-11-25T00:29:29.331Z,0.25
2022-11-25T00:31:30.417Z,0.13
2022-11-25T00:33:32.005Z,0.02
2022-11-25T00:35:33.497Z,-0.02
2022-11-25T00:37:35.514Z,-0.05
2022-11-25T00:39:37.199Z,-0.13
2022-11-25T00:41:38.404Z,-0.09
2022-11-25T00:43:39.583Z,0.04
2022-11-25T00:45:40.870Z,0.38
2022-11-25T00:47:42.368Z,0.38
2022-11-25T00:49:43.902Z,0.45
2022-11-25T00:51:45.778Z,0.37
2022-11-25T00:53:47.630Z,0.28
2022-11-25T00:55:49.283Z,0.19
2022-11-25T00:57:50.896Z,0.24
2022-11-25T00:59:52.225Z,0.17
2022-11-25T01:01:53.358Z,0.09
2022-11-25T01:03:54.379Z,-0.01
2022-11-25T01:05:56.056Z,-0.16
2022-11-25T01:07:57.998Z,-0.22
2022-11-25T01:09:59.500Z,-0.33
2022-11-25T01:12:00.900Z,-0.44
2022-11-25T01:14:02.597Z,-0.24
2022-11-25T01:16:04.437Z,-0.29
2022-11-25T01:18:05.780Z,-0.18
2022-11-25T01:20:06.937Z,-0.3
2022-11-25T01:22:08.665Z,-0.36
2022-11-25T01:24:10.070Z,-0.42
2022-11-25T01:26:11.875Z,-0.27
2022-11-25T01:28:13.818Z,-0.18
2022-11-25T01:30:15.450Z,-0.14
2022-11-25T01:32:16.691Z,-0.08
2022-11-25T01:34:18.600Z,0.22
2022-11-25T01:36:19.931Z,0.3
2022-11-25T01:38:21.947Z,0.1
2022-11-25T01:40:23.690Z,0.05
2022-11-25T01:42:25.247Z,-0.03
2022-11-25T01:44:26.634Z,-0.11
2022-11-25T01:46:28.607Z,-0.21
2022-11-25T01:48:29.680Z,-0.29
2022-11-25T01:50:31.052Z,-0.41
2022-11-25T01:52:32.838Z,-0.35
2022-11-25T01:54:35.209Z,-0.39
2022-11-25T01:56:35.992Z,-0.41
2022-11-25T01:58:37.762Z,-0.19
2022-11-25T02:00:39.870Z,-0.21
2022-11-25T02:02:41.122Z,-0.3
2022-11-25T02:04:43.091Z,-0.27
2022-11-25T02:06:45.109Z,-0.26
2022-11-25T02:08:46.449Z,-0.31
2022-11-25T02:10:47.964Z,-0.36
2022-11-25T02:12:49.885Z,-0.37
2022-11-25T02:14:50.972Z,-0.25
2022-11-25T02:16:52.213Z,-0.29
2022-11-25T02:18:53.659Z,-0.33
2022-11-25T02:20:55.476Z,-0.25
2022-11-25T02:22:57.047Z,-0.21
2022-11-25T02:24:58.193Z,-0.19
2022-11-25T02:26:59.976Z,-0.15
2022-11-25T02:29:01.491Z,-0.21
2022-11-25T02:31:03.401Z,-0.24
2022-11-25T02:33:04.885Z,-0.25
2022-11-25T02:35:06.465Z,-0.35
2022-11-25T02:37:08.185Z,-0.6
2022-11-25T02:39:09.304Z,-0.58
2022-11-25T02:41:11.279Z,-0.55
2022-11-25T02:43:12.655Z,-0.57
2022-11-25T02:45:14.042Z,-0.58
2022-11-25T02:47:15.707Z,-0.52
2022-11-25T02:49:16.843Z,-0.18
2022-11-25T02:51:18.364Z,-0.13
2022-11-25T02:53:20.179Z,-0.05
2022-11-25T02:55:21.703Z,-0.25
2022-11-25T02:57:23.469Z,-0.37
2022-11-25T02:59:24.601Z,-0.35
2022-11-25T03:01:26.819Z,-0.47
2022-11-25T03:03:28.336Z,-0.34
2022-11-25T03:05:29.469Z,-0.33
2022-11-25T03:07:30.753Z,-0.37
2022-11-25T03:09:31.812Z,-0.37
2022-11-25T03:11:32.883Z,-0.33
2022-11-25T03:13:34.698Z,-0.38
2022-11-25T03:15:35.993Z,-0.34
2022-11-25T03:17:37.862Z,-0.29
2022-11-25T03:19:39.336Z,-0.34
2022-11-25T03:21:41.303Z,-0.37
2022-11-25T03:23:42.925Z,-0.28
2022-11-25T03:25:44.673Z,-0.26
2022-11-25T03:27:45.843Z,-0.1
2022-11-25T03:29:47.349Z,0.15
2022-11-25T03:31:49.376Z,0.05
2022-11-25T03:33:50.978Z,0.04
2022-11-25T03:35:52.725Z,-0.05
2022-11-25T03:37:54.182Z,-0.14
2022-11-25T03:39:56.163Z,-0.23
2022-11-25T03:41:57.763Z,-0.34
2022-11-25T03:43:59.342Z,-0.47
2022-11-25T03:46:01.214Z,-0.5
2022-11-25T03:48:03.072Z,-0.58
2022-11-25T03:50:04.958Z,-0.4
2022-11-25T03:52:06.012Z,-0.26
2022-11-25T03:54:07.541Z,-0.29
2022-11-25T03:56:09.063Z,-0.3
2022-11-25T03:58:10.274Z,-0.36
2022-11-25T04:00:11.851Z,-0.38
2022-11-25T04:02:13.040Z,-0.32
2022-11-25T04:04:14.788Z,-0.37
2022-11-25T04:06:16.158Z,-0.47
2022-11-25T04:09:01.871Z,-0.6
2022-11-25T04:11:03.578Z,-0.69
2022-11-25T04:13:04.742Z,-0.66
2022-11-25T04:15:06.085Z,-0.49
2022-11-25T04:17:07.676Z,-0.44
2022-11-25T04:19:08.768Z,-0.24
2022-11-25T04:21:10.507Z,-0.22
2022-11-25T04:23:12.263Z,-0.1
2022-11-25T04:25:14.000Z,-0.13
2022-11-25T04:27:15.940Z,0
2022-11-25T04:29:17.232Z,-0.01
2022-11-25T04:31:18.328Z,0
2022-11-25T04:35:21.566Z,-0.33
2022-11-25T04:37:23.327Z,-0.4
2022-11-25T04:39:24.732Z,-0.45
2022-11-25T04:41:26.134Z,-0.45
2022-11-25T04:43:27.505Z,-0.36
2022-11-25T04:45:36.893Z,-0.33
2022-11-25T04:47:30.622Z,-0.33
2022-11-25T04:49:32.509Z,-0.35
2022-11-25T04:51:34.354Z,-0.27
2022-11-25T04:53:36.240Z,-0.28
2022-11-25T04:55:37.434Z,-0.4
2022-11-25T04:57:38.862Z,-0.43
2022-11-25T04:59:40.745Z,-0.49
2022-11-25T05:01:42.042Z,-0.42
2022-11-25T05:03:48.212Z,-0.27
2022-11-25T05:05:45.862Z,-0.31
2022-11-25T05:07:47.489Z,-0.34
2022-11-25T05:09:49.233Z,-0.38
2022-11-25T05:11:50.997Z,-0.46
2022-11-25T05:13:52.417Z,-0.5
2022-11-25T05:15:53.664Z,-0.56
2022-11-25T05:17:54.781Z,-0.55
2022-11-25T05:19:56.689Z,-0.56
2022-11-25T05:21:58.377Z,-0.34
2022-11-25T05:24:00.425Z,-0.23
2022-11-25T05:26:01.795Z,-0.22
2022-11-25T05:28:03.557Z,-0.21
2022-11-25T05:30:05.154Z,-0.21
2022-11-25T05:32:07.001Z,-0.22
2022-11-25T05:34:08.173Z,-0.25
2022-11-25T05:36:09.329Z,-0.27
2022-11-25T05:38:10.575Z,-0.24
2022-11-25T05:40:11.732Z,-0.23
2022-11-25T05:42:13.157Z,-0.21
2022-11-25T05:44:18.440Z,-0.19
2022-11-25T05:46:16.335Z,-0.05
2022-11-25T05:48:17.558Z,-0.06
2022-11-25T05:50:19.334Z,-0.07
2022-11-25T05:52:21.094Z,-0.1
2022-11-25T05:54:22.670Z,-0.14
2022-11-25T05:56:24.599Z,-0.14
2022-11-25T05:58:26.003Z,-0.33
2022-11-25T06:00:27.852Z,-0.5
2022-11-25T06:02:29.786Z,-0.52
2022-11-25T06:04:31.231Z,-0.47
2022-11-25T06:06:32.473Z,-0.36
2022-11-25T06:08:33.714Z,-0.4
2022-11-25T06:10:35.077Z,-0.35
2022-11-25T06:12:36.460Z,-0.33
2022-11-25T06:14:38.682Z,-0.1
2022-11-25T06:16:40.342Z,0.04
2022-11-25T06:18:42.258Z,0
2022-11-25T06:20:43.738Z,0.09
2022-11-25T06:22:45.480Z,0.08
2022-11-25T06:24:50.401Z,0.03
2022-11-25T06:26:48.107Z,0
2022-11-25T06:28:49.400Z,0
2022-11-25T06:30:50.702Z,-0.09
2022-11-25T06:32:51.806Z,-0.11
2022-11-25T06:34:52.981Z,-0.2
2022-11-25T06:36:54.240Z,-0.21
2022-11-25T06:38:55.593Z,-0.26
2022-11-25T06:41:00.228Z,-0.28
2022-11-25T06:42:58.629Z,-0.32
2022-11-25T06:45:00.306Z,-0.33
2022-11-25T06:47:02.295Z,-0.31
2022-11-25T06:49:03.774Z,-0.33
2022-11-25T06:51:05.223Z,-0.22
2022-11-25T06:53:07.234Z,-0.14
2022-11-25T06:55:08.684Z,-0.08
2022-11-25T06:57:10.024Z,-0.14
2022-11-25T06:59:11.145Z,-0.14
2022-11-25T07:01:12.322Z,-0.16
2022-11-25T07:03:14.183Z,-0.13
2022-11-25T07:05:16.197Z,-0.07
2022-11-25T07:07:17.606Z,-0.1
2022-11-25T07:09:18.771Z,-0.23
2022-11-25T07:11:20.768Z,-0.23
2022-11-25T07:13:22.058Z,-0.17
2022-11-25T07:15:23.332Z,-0.22
2022-11-25T07:17:24.494Z,-0.76
2022-11-25T07:19:26.359Z,-0.61
2022-11-25T07:21:27.947Z,-0.4
2022-11-25T07:23:29.774Z,-0.15
2022-11-25T07:25:31.136Z,0.02
2022-11-25T07:27:32.447Z,0.19
2022-11-25T07:29:54.451Z,0.25
2022-11-25T07:31:36.135Z,0.31
2022-11-25T07:33:37.517Z,0.31
2022-11-25T07:35:38.850Z,0.28
2022-11-25T07:37:40.726Z,0.27
2022-11-25T07:39:42.649Z,0.38
2022-11-25T07:41:43.994Z,0.41
2022-11-25T07:43:45.660Z,0.53
2022-11-25T07:45:47.688Z,0.53
2022-11-25T07:47:49.581Z,0.48
2022-11-25T07:49:51.160Z,0.49
2022-11-25T07:51:53.088Z,0.67
2022-11-25T07:53:54.221Z,0.92
2022-11-25T07:55:55.329Z,1.25
2022-11-25T07:57:57.095Z,1.39
2022-11-25T07:59:58.310Z,1.36
2022-11-25T08:01:59.821Z,1.1
2022-11-25T08:04:00.774Z,1.51
2022-11-25T08:06:01.785Z,1.87
2022-11-25T08:08:02.927Z,1.86
2022-11-25T08:10:04.550Z,1.68
2022-11-25T08:12:05.710Z,1.6
2022-11-25T08:14:06.924Z,1.5
2022-11-25T08:16:09.041Z,1.68
2022-11-25T08:18:10.326Z,1.77
2022-11-25T08:20:11.378Z,2.42
2022-11-25T08:22:13.171Z,2.32
2022-11-25T08:24:14.164Z,2.42
2022-11-25T08:26:15.926Z,2.25
2022-11-25T08:28:17.778Z,2.54
2022-11-25T08:30:18.817Z,2.84
2022-11-25T08:32:20.568Z,3.38
2022-11-25T08:34:22.210Z,3.81
2022-11-25T08:36:23.898Z,3.3
2022-11-25T08:38:24.882Z,3.11
2022-11-25T08:40:26.141Z,3.5
2022-11-25T08:42:27.192Z,3.61
2022-11-25T08:44:28.475Z,3.02
2022-11-25T08:46:30.013Z,3.53
2022-11-25T08:48:31.792Z,3.7
2022-11-25T08:50:33.196Z,3.53
2022-11-25T08:52:34.892Z,3.56
2022-11-25T08:54:35.901Z,3.42
2022-11-25T08:56:37.281Z,3.94
2022-11-25T08:58:39.061Z,4.08
2022-11-25T09:00:40.811Z,3.87
2022-11-25T09:02:42.239Z,3.77
2022-11-25T09:04:43.683Z,4.36
2022-11-25T09:06:44.729Z,4.51
2022-11-25T09:08:46.580Z,4.77
2022-11-25T09:10:47.767Z,4.67
2022-11-25T09:12:49.573Z,4.52
2022-11-25T09:14:51.254Z,4.44
2022-11-25T09:16:52.579Z,4.52
2022-11-25T09:18:55.768Z,4.53
2022-11-25T09:20:55.215Z,4.53
2022-11-25T09:22:56.282Z,4.59
2022-11-25T09:24:57.915Z,4.81
2022-11-25T09:26:59.150Z,5.17
2022-11-25T09:29:00.278Z,5.37
2022-11-25T09:31:01.233Z,5.5
2022-11-25T09:33:02.698Z,5.52
2022-11-25T09:35:04.144Z,5.74
2022-11-25T09:39:07.560Z,5.92
2022-11-25T09:41:09.117Z,6.02
2022-11-25T09:43:10.604Z,6.04
2022-11-25T09:45:12.464Z,6.21
2022-11-25T09:47:14.279Z,6.08
2022-11-25T09:49:15.575Z,6.21
2022-11-25T09:51:16.698Z,6.26
2022-11-25T09:53:17.800Z,6.28
2022-11-25T09:55:18.768Z,6.28
2022-11-25T09:57:20.500Z,6.38
2022-11-25T09:59:21.547Z,6.55
2022-11-25T10:01:22.776Z,6.66
2022-11-25T10:03:24.575Z,6.44
2022-11-25T10:05:25.932Z,6.56
2022-11-25T10:07:27.202Z,6.75
2022-11-25T10:09:28.658Z,6.78
2022-11-25T10:11:29.983Z,6.49
2022-11-25T10:13:31.823Z,6.19
2022-11-25T10:15:33.427Z,6.25
2022-11-25T10:17:35.301Z,6.25
2022-11-25T10:21:37.766Z,6.48
2022-11-25T10:23:39.434Z,6.59
2022-11-25T10:25:41.156Z,6.7
2022-11-25T10:27:42.924Z,6.71
2022-11-25T10:29:44.144Z,6.8
2022-11-25T10:31:45.445Z,6.99
2022-11-25T10:33:46.665Z,6.92
2022-11-25T10:35:47.877Z,7.03
2022-11-25T10:37:48.985Z,7.17
2022-11-25T10:39:50.773Z,7.05
2022-11-25T10:41:52.586Z,7
2022-11-25T10:43:54.408Z,7.06
2022-11-25T10:45:55.738Z,6.98
2022-11-25T10:47:57.542Z,6.8
2022-11-25T10:49:59.374Z,6.8
2022-11-25T10:52:01.188Z,6.81
2022-11-25T10:54:46.358Z,6.91
2022-11-25T10:56:47.342Z,6.94
2022-11-25T10:58:48.755Z,6.98
2022-11-25T11:00:50.177Z,7.02
2022-11-25T11:02:51.346Z,7.07
2022-11-25T11:04:53.012Z,7.02
2022-11-25T11:06:53.955Z,7.06
2022-11-25T11:08:55.680Z,7.11
2022-11-25T11:10:57.313Z,7.01
2022-11-25T11:12:58.628Z,7.06
2022-11-25T11:14:59.724Z,7.17
2022-11-25T11:17:01.529Z,7.1
2022-11-25T11:19:02.649Z,7.23
2022-11-25T11:21:03.589Z,7.29
2022-11-25T11:23:08.794Z,7.36
2022-11-25T11:25:06.227Z,7.39
2022-11-25T11:27:07.702Z,7.47
2022-11-25T11:29:12.718Z,7.45
2022-11-25T11:31:10.518Z,7.45
2022-11-25T11:33:11.832Z,7.56
2022-11-25T11:35:13.130Z,7.52
2022-11-25T11:37:14.213Z,7.56
2022-11-25T11:39:15.472Z,7.61
2022-11-25T11:41:17.052Z,7.57
2022-11-25T11:43:18.678Z,7.58
2022-11-25T11:45:20.232Z,7.58
2022-11-25T11:47:22.031Z,7.53
2022-11-25T11:49:27.675Z,7.54
2022-11-25T11:51:25.620Z,7.54
2022-11-25T11:53:26.604Z,7.56
2022-11-25T11:57:29.518Z,7.55
2022-11-25T11:59:31.252Z,7.56
2022-11-25T12:01:33.131Z,7.59
2022-11-25T12:03:34.703Z,7.56
2022-11-25T12:05:36.351Z,7.54
2022-11-25T12:07:37.436Z,7.5
2022-11-25T12:09:38.506Z,7.49
2022-11-25T12:11:40.303Z,7.48
2022-11-25T12:13:41.605Z,7.42
2022-11-25T12:15:43.248Z,7.4
2022-11-25T12:17:45.168Z,7.36
2022-11-25T12:19:46.733Z,7.37
2022-11-25T12:21:47.746Z,7.38
2022-11-25T12:23:49.126Z,7.33
2022-11-25T12:25:50.868Z,7.35
2022-11-25T12:27:52.293Z,7.3
2022-11-25T12:29:53.281Z,7.3
2022-11-25T12:31:54.363Z,7.27
2022-11-25T12:33:56.264Z,7.29
2022-11-25T12:35:57.137Z,7.3
2022-11-25T12:40:00.614Z,7.29
2022-11-25T12:42:02.191Z,7.33
2022-11-25T12:44:03.636Z,7.39
2022-11-25T12:46:04.965Z,7.33
2022-11-25T12:48:06.480Z,7.3
2022-11-25T12:50:07.949Z,7.32
2022-11-25T12:52:09.747Z,7.37
2022-11-25T12:54:10.827Z,7.34
2022-11-25T12:56:11.816Z,7.4
2022-11-25T12:58:13.584Z,7.4
2022-11-25T13:00:40.836Z,7.41
2022-11-25T13:02:15.967Z,7.45
2022-11-25T13:04:16.866Z,7.46
2022-11-25T13:06:18.608Z,7.49
2022-11-25T13:08:20.078Z,7.52
2022-11-25T13:10:21.781Z,7.5
2022-11-25T13:12:23.155Z,7.51
2022-11-25T13:14:24.603Z,7.48
2022-11-25T13:16:25.493Z,7.46
2022-11-25T13:18:26.273Z,7.57
2022-11-25T13:20:27.282Z,7.56
2022-11-25T13:22:28.978Z,7.6
2022-11-25T13:24:30.098Z,7.7
2022-11-25T13:26:31.090Z,7.66
2022-11-25T13:28:32.999Z,7.62
2022-11-25T13:30:34.131Z,7.68
2022-11-25T13:32:35.848Z,7.66
2022-11-25T13:34:37.542Z,7.62
2022-11-25T13:36:38.561Z,7.6
2022-11-25T13:38:40.248Z,7.64
2022-11-25T13:40:41.726Z,7.67
2022-11-25T13:42:42.769Z,7.67
2022-11-25T13:44:44.436Z,7.6
2022-11-25T13:46:45.684Z,7.61
2022-11-25T13:48:46.811Z,7.61
2022-11-25T13:51:09.867Z,7.67
2022-11-25T13:52:50.027Z,7.64
2022-11-25T13:54:51.658Z,7.65
2022-11-25T13:56:52.756Z,7.68
2022-11-25T13:58:54.338Z,7.65
2022-11-25T14:00:55.824Z,7.65
2022-11-25T14:02:57.518Z,7.66
2022-11-25T14:04:59.359Z,7.61
2022-11-25T14:07:00.637Z,7.6
2022-11-25T14:09:01.623Z,7.62
2022-11-25T14:11:02.774Z,7.56
2022-11-25T14:13:04.082Z,7.53
2022-11-25T14:15:05.927Z,7.46
2022-11-25T14:17:07.535Z,7.5
2022-11-25T14:19:49.904Z,7.49
2022-11-25T14:21:10.896Z,7.51
2022-11-25T14:23:12.517Z,7.49
2022-11-25T14:25:14.211Z,7.49
2022-11-25T14:27:15.983Z,7.5
2022-11-25T14:29:17.526Z,7.46
2022-11-25T14:31:18.977Z,7.47
2022-11-25T14:33:19.947Z,7.47
2022-11-25T14:35:21.224Z,7.46
2022-11-25T14:37:23.119Z,7.43
2022-11-25T14:39:24.293Z,7.47
2022-11-25T14:41:25.920Z,7.43
2022-11-25T14:43:26.957Z,7.44
2022-11-25T14:45:28.639Z,7.43
2022-11-25T14:47:32.263Z,7.45
2022-11-25T14:49:46.912Z,7.42
2022-11-25T14:51:33.064Z,7.37
2022-11-25T14:53:35.035Z,7.35
2022-11-25T14:55:35.762Z,7.38
2022-11-25T14:57:37.605Z,7.37
2022-11-25T14:59:43.722Z,7.36
2022-11-25T15:03:42.377Z,7.34
2022-11-25T15:05:43.441Z,7.29
2022-11-25T15:07:44.585Z,7.31
2022-11-25T15:09:45.501Z,7.31
2022-11-25T15:11:47.219Z,7.3
2022-11-25T15:13:48.705Z,7.29
2022-11-25T15:15:50.170Z,7.29
2022-11-25T15:17:51.673Z,7.29
2022-11-25T15:19:52.837Z,7.29
2022-11-25T15:22:21.719Z,7.3
2022-11-25T15:23:56.028Z,7.27
2022-11-25T15:25:57.380Z,7.25
2022-11-25T15:27:58.805Z,7.24
2022-11-25T15:30:00.487Z,7.22
2022-11-25T15:32:02.290Z,7.22
2022-11-25T15:34:03.695Z,7.24
2022-11-25T15:36:04.827Z,7.22
2022-11-25T15:38:06.642Z,7.22
2022-11-25T15:40:07.719Z,7.2
2022-11-25T15:42:08.833Z,7.21
2022-11-25T15:44:10.507Z,7.22
2022-11-25T15:46:12.262Z,7.18
2022-11-25T15:48:13.777Z,7.16
2022-11-25T15:50:15.185Z,7.17
2022-11-25T15:52:16.427Z,7.17
2022-11-25T15:54:18.164Z,7.19
2022-11-25T15:56:19.363Z,7.19
2022-11-25T15:58:21.161Z,7.18
2022-11-25T16:00:22.361Z,7.18
2022-11-25T16:02:23.437Z,7.16
2022-11-25T16:04:24.969Z,7.18
2022-11-25T16:06:26.882Z,7.12
2022-11-25T16:08:28.273Z,7.16
2022-11-25T16:10:29.773Z,7.15
2022-11-25T16:12:31.352Z,7.1
2022-11-25T16:14:32.632Z,7.09
2022-11-25T16:16:34.066Z,7.13
2022-11-25T16:18:40.546Z,7.14
2022-11-25T16:20:37.440Z,7.1
2022-11-25T16:22:38.531Z,7.11
2022-11-25T16:24:39.533Z,7.13
2022-11-25T16:26:41.203Z,7.13
2022-11-25T16:28:42.871Z,7.12
2022-11-25T16:30:43.964Z,7.06
2022-11-25T16:32:45.363Z,6.96
2022-11-25T16:34:46.825Z,6.89
2022-11-25T16:36:47.821Z,6.81
2022-11-25T16:38:49.253Z,6.82
2022-11-25T16:40:50.552Z,6.78
2022-11-25T16:42:51.869Z,6.82
2022-11-25T16:44:53.721Z,6.85
2022-11-25T16:46:54.851Z,6.84
2022-11-25T16:48:56.758Z,6.91
2022-11-25T16:50:58.227Z,6.99
2022-11-25T16:52:59.882Z,7.07
2022-11-25T16:55:00.933Z,7.13
2022-11-25T16:57:01.907Z,7.19
2022-11-25T16:59:03.659Z,7.15
2022-11-25T17:01:05.526Z,7.13
2022-11-25T17:03:06.626Z,7.06
2022-11-25T17:05:07.771Z,7.03
2022-11-25T17:07:31.445Z,6.97
2022-11-25T17:09:10.196Z,6.93
2022-11-25T17:11:11.466Z,6.88
2022-11-25T17:13:12.984Z,6.78
2022-11-25T17:15:14.788Z,6.6
2022-11-25T17:17:19.922Z,6.54
2022-11-25T17:19:17.408Z,6.72
2022-11-25T17:21:19.205Z,6.59
2022-11-25T17:23:22.262Z,6.6
2022-11-25T17:27:23.324Z,6.76
2022-11-25T17:29:24.894Z,6.74
2022-11-25T17:31:26.820Z,6.81
2022-11-25T17:33:28.697Z,6.87
2022-11-25T17:35:30.182Z,6.88
2022-11-25T17:37:31.399Z,6.82
2022-11-25T17:38:15.209Z,6.87
2022-11-25T17:40:16.278Z,6.93
2022-11-25T17:42:17.666Z,6.94
2022-11-25T17:44:19.380Z,6.91
2022-11-25T17:46:20.820Z,6.9
2022-11-25T17:48:21.877Z,6.87
2022-11-25T17:50:23.209Z,7
2022-11-25T17:52:24.954Z,6.86
2022-11-25T17:54:26.103Z,7.02
2022-11-25T17:56:27.190Z,6.97
2022-11-25T17:58:28.340Z,6.89
2022-11-25T18:00:29.317Z,6.87
2022-11-25T18:02:30.529Z,6.89
2022-11-25T18:04:32.243Z,6.88
2022-11-25T18:06:34.078Z,6.86
2022-11-25T18:08:35.569Z,6.79
2022-11-25T18:10:37.411Z,6.76
2022-11-25T18:12:38.796Z,6.78
2022-11-25T18:14:40.103Z,6.78
2022-11-25T18:16:41.657Z,6.75
2022-11-25T18:18:43.399Z,6.77
2022-11-25T18:20:44.511Z,6.78
2022-11-25T18:22:45.751Z,6.75
2022-11-25T18:24:46.874Z,6.72
2022-11-25T18:26:48.598Z,6.82
2022-11-25T18:28:49.799Z,6.88
2022-11-25T18:30:51.606Z,6.91
2022-11-25T18:32:52.932Z,6.87
2022-11-25T18:34:54.199Z,6.82
2022-11-25T18:36:55.333Z,6.79
2022-11-25T18:38:56.783Z,6.72
2022-11-25T18:40:57.946Z,6.73
2022-11-25T18:42:59.597Z,6.77
2022-11-25T18:45:00.807Z,6.76
2022-11-25T18:47:02.176Z,6.69
2022-11-25T18:49:03.322Z,6.71
2022-11-25T18:51:04.564Z,6.61
2022-11-25T18:53:06.455Z,6.62
2022-11-25T18:55:08.257Z,6.55
2022-11-25T18:57:09.531Z,6.51
2022-11-25T18:59:11.301Z,6.58
2022-11-25T19:01:12.576Z,6.55
2022-11-25T19:03:13.649Z,6.57
2022-11-25T19:05:15.273Z,6.51
2022-11-25T19:07:16.922Z,6.54
2022-11-25T19:09:17.989Z,6.56
2022-11-25T19:11:19.394Z,6.63
2022-11-25T19:13:20.967Z,6.67
2022-11-25T19:15:22.777Z,6.73
2022-11-25T19:17:24.313Z,6.8
2022-11-25T19:19:25.586Z,6.9
2022-11-25T19:21:27.112Z,6.87
2022-11-25T19:23:28.313Z,6.95
2022-11-25T19:25:30.173Z,7.01
2022-11-25T19:27:31.572Z,7.05
2022-11-25T19:29:34.589Z,6.99
2022-11-25T19:31:33.580Z,6.91
2022-11-25T19:33:34.560Z,6.99
2022-11-25T19:35:35.788Z,6.99
2022-11-25T19:37:36.785Z,6.99
2022-11-25T19:39:38.569Z,7.03
2022-11-25T19:41:40.494Z,6.98
2022-11-25T19:45:43.205Z,7.05
2022-11-25T19:47:44.820Z,7.08
2022-11-25T19:49:46.282Z,7.14
2022-11-25T19:51:47.387Z,7.07
2022-11-25T19:53:49.194Z,7.13
2022-11-25T19:55:50.188Z,7.19
2022-11-25T19:57:52.005Z,7.23
2022-11-25T19:59:53.580Z,7.21
2022-11-25T20:01:55.032Z,7.25
2022-11-25T20:03:56.595Z,7.27
2022-11-25T20:05:58.478Z,7.28
2022-11-25T20:07:59.652Z,7.27
2022-11-25T20:10:00.949Z,7.23
2022-11-25T20:12:02.690Z,7.22
2022-11-25T20:14:04.536Z,7.22
2022-11-25T20:16:15.339Z,7.25
2022-11-25T20:18:08.280Z,7.24
2022-11-25T20:20:10.010Z,7.2
2022-11-25T20:22:11.604Z,7.1
2022-11-25T20:24:13.322Z,7.11
2022-11-25T20:26:14.473Z,7.12
2022-11-25T20:28:16.168Z,7.09
2022-11-25T20:30:17.327Z,7.15
2022-11-25T20:32:18.944Z,7.1
2022-11-25T20:34:20.225Z,7.14
2022-11-25T20:36:21.937Z,7.15
2022-11-25T20:38:23.740Z,7.17
2022-11-25T20:40:25.496Z,7.1
2022-11-25T20:42:26.834Z,7.1
2022-11-25T20:44:27.845Z,7.13
2022-11-25T20:46:29.468Z,7.18
2022-11-25T20:48:30.816Z,7.16
2022-11-25T20:50:32.206Z,7.14
2022-11-25T20:52:33.913Z,7.17
2022-11-25T20:54:35.033Z,7.13
2022-11-25T20:56:36.386Z,7.11
2022-11-25T20:58:37.908Z,7.09
2022-11-25T21:00:39.455Z,7.03
2022-11-25T21:02:40.585Z,7.09
2022-11-25T21:04:41.557Z,7.04
2022-11-25T21:06:43.158Z,7
2022-11-25T21:08:45.002Z,6.99
2022-11-25T21:10:45.954Z,6.88
2022-11-25T21:12:47.270Z,6.86
2022-11-25T21:14:48.583Z,6.85
2022-11-25T21:16:49.723Z,6.85
2022-11-25T21:18:51.015Z,6.8
2022-11-25T21:20:52.717Z,6.74
2022-11-25T21:22:54.042Z,6.71
2022-11-25T21:24:55.831Z,6.67
2022-11-25T21:26:57.021Z,6.62
2022-11-25T21:28:59.033Z,6.55
2022-11-25T21:31:00.771Z,6.53
2022-11-25T21:33:02.177Z,6.54
2022-11-25T21:35:04.104Z,6.54
2022-11-25T21:37:05.650Z,6.56
2022-11-25T21:39:07.363Z,6.53
2022-11-25T21:41:09.312Z,6.51
2022-11-25T21:43:11.171Z,6.52
2022-11-25T21:45:12.835Z,6.44
2022-11-25T21:47:14.472Z,6.35
2022-11-25T21:49:16.440Z,6.41
2022-11-25T21:51:18.022Z,6.37
2022-11-25T21:53:19.519Z,6.33
2022-11-25T21:55:21.330Z,6.35
2022-11-25T21:57:23.111Z,6.41
2022-11-25T21:59:24.545Z,6.36
2022-11-25T22:01:25.729Z,6.34
2022-11-25T22:03:27.100Z,6.38
2022-11-25T22:05:28.718Z,6.3
2022-11-25T22:07:31.031Z,6.32
2022-11-25T22:09:31.996Z,6.28
2022-11-25T22:11:33.673Z,6.33
2022-11-25T22:13:34.776Z,6.34
2022-11-25T22:15:36.717Z,6.34
2022-11-25T22:17:38.271Z,6.31
2022-11-25T22:19:40.146Z,6.37
2022-11-25T22:21:41.663Z,6.38
2022-11-25T22:23:43.266Z,6.41
2022-11-25T22:25:44.746Z,6.41
2022-11-25T22:27:46.110Z,6.34
2022-11-25T22:29:47.641Z,6.27
2022-11-25T22:31:49.435Z,6.29
2022-11-25T22:33:50.905Z,6.31
2022-11-25T22:35:52.032Z,6.32
2022-11-25T22:37:55.279Z,6.43
2022-11-25T22:39:55.021Z,6.45
2022-11-25T22:41:56.003Z,6.42
2022-11-25T22:43:57.745Z,6.44
2022-11-25T22:45:58.885Z,6.44
2022-11-25T22:48:00.658Z,6.44
2022-11-25T22:50:01.735Z,6.49
2022-11-25T22:52:03.446Z,6.49
2022-11-25T22:54:05.005Z,6.51
2022-11-25T22:56:06.098Z,6.47
2022-11-25T22:58:07.736Z,6.43
2022-11-25T23:00:08.837Z,6.4
2022-11-25T23:02:10.249Z,6.34
2022-11-25T23:04:11.382Z,6.35
2022-11-25T23:06:13.165Z,6.35
2022-11-25T23:08:14.323Z,6.4
2022-11-25T23:10:15.875Z,6.34
2022-11-25T23:12:17.601Z,6.27
2022-11-25T23:14:19.451Z,6.24
2022-11-25T23:16:20.877Z,6.28
2022-11-25T23:18:22.611Z,6.23
2022-11-25T23:20:23.970Z,6.3
2022-11-25T23:22:25.575Z,6.24
2022-11-25T23:24:26.612Z,6.25
2022-11-25T23:26:32.263Z,6.19
2022-11-25T23:28:29.791Z,6.15
2022-11-25T23:30:31.613Z,6.17
2022-11-25T23:34:34.169Z,6.01
2022-11-25T23:36:35.598Z,6.02
2022-11-25T23:38:36.604Z,6.02
2022-11-25T23:40:37.644Z,5.96
2022-11-25T23:42:39.594Z,5.89
2022-11-25T23:44:41.446Z,5.84
2022-11-25T23:46:42.373Z,5.87
2022-11-25T23:48:44.057Z,5.91
2022-11-25T23:50:44.858Z,5.94
2022-11-25T23:52:45.951Z,6.06
2022-11-25T23:54:46.967Z,6.03
2022-11-25T23:56:48.814Z,6.09
2022-11-25T23:58:50.762Z,6.05
